createdAt,value
2022-12-23T00:00:22.092Z,97806.34
2022-12-23T00:01:22.437Z,97799.77
2022-12-23T00:02:22.140Z,97804.68
2022-12-23T00:03:22.329Z,97798.57
2022-12-23T00:04:22.111Z,97797.2
2022-12-23T00:05:22.039Z,97797.81
2022-12-23T00:06:22.030Z,97793.42
2022-12-23T00:07:22.109Z,97795.71
2022-12-23T00:08:22.515Z,97796.55
2022-12-23T00:09:22.050Z,97790.12
2022-12-23T00:10:22.473Z,97792.09
2022-12-23T00:11:22.065Z,97787.66
2022-12-23T00:12:22.128Z,97783.11
2022-12-23T00:13:22.129Z,97788.45
2022-12-23T00:14:22.301Z,97783.22
2022-12-23T00:15:22.150Z,97772.73
2022-12-23T00:16:22.222Z,97776
2022-12-23T00:17:23.182Z,97777.11
2022-12-23T00:18:22.169Z,97779.9
2022-12-23T00:19:22.267Z,97776.84
2022-12-23T00:20:22.210Z,97767.66
2022-12-23T00:21:23.532Z,97768.14
2022-12-23T00:22:22.235Z,97770.55
2022-12-23T00:23:22.247Z,97772.51
2022-12-23T00:24:22.419Z,97766.61
2022-12-23T00:25:22.308Z,97766.94
2022-12-23T00:26:24.037Z,97764.33
2022-12-23T00:27:22.314Z,97758.59
2022-12-23T00:28:23.579Z,97757.39
2022-12-23T00:29:22.402Z,97754.03
2022-12-23T00:30:22.382Z,97754.05
2022-12-23T00:31:22.520Z,97749.5
2022-12-23T00:32:22.459Z,97753.25
2022-12-23T00:33:23.605Z,97748.54
2022-12-23T00:34:22.458Z,97748.34
2022-12-23T00:35:22.449Z,97746.62
2022-12-23T00:36:26.923Z,97744.39
2022-12-23T00:37:23.376Z,97743.05
2022-12-23T00:38:23.225Z,97739.67
2022-12-23T00:39:23.331Z,97742.09
2022-12-23T00:40:23.240Z,97739.43
2022-12-23T00:41:23.305Z,97731.81
2022-12-23T00:42:23.263Z,97740.38
2022-12-23T00:43:23.527Z,97732.05
2022-12-23T00:44:23.477Z,97732.33
2022-12-23T00:45:23.662Z,97727.73
2022-12-23T00:46:23.577Z,97723.22
2022-12-23T00:47:23.371Z,97727.25
2022-12-23T00:48:23.418Z,97725.71
2022-12-23T00:49:23.417Z,97729.03
2022-12-23T00:50:23.389Z,97719.26
2022-12-23T00:51:23.421Z,97719.22
2022-12-23T00:52:23.447Z,97717.42
2022-12-23T00:53:23.486Z,97716.52
2022-12-23T00:54:23.532Z,97715.55
2022-12-23T00:55:23.643Z,97711.38
2022-12-23T00:56:23.552Z,97708.02
2022-12-23T00:57:23.504Z,97711.41
2022-12-23T00:58:23.555Z,97709.23
2022-12-23T00:59:23.592Z,97706.47
2022-12-23T01:00:24.147Z,97706.19
2022-12-23T01:01:23.818Z,97707.54
2022-12-23T01:02:23.784Z,97706.03
2022-12-23T01:03:24.161Z,97700.17
2022-12-23T01:04:23.633Z,97698.34
2022-12-23T01:05:23.850Z,97703.64
2022-12-23T01:06:23.698Z,97699.34
2022-12-23T01:07:24.071Z,97703.98
2022-12-23T01:08:23.697Z,97702.46
2022-12-23T01:09:23.899Z,97694.19
2022-12-23T01:10:23.762Z,97696.05
2022-12-23T01:11:23.747Z,97692.92
2022-12-23T01:12:23.764Z,97691.31
2022-12-23T01:13:23.799Z,97689.66
2022-12-23T01:14:23.767Z,97689.66
2022-12-23T01:15:23.859Z,97684.8
2022-12-23T01:16:24.041Z,97683.66
2022-12-23T01:17:23.984Z,97682.89
2022-12-23T01:18:23.812Z,97683.03
2022-12-23T01:19:23.990Z,97679.62
2022-12-23T01:20:24.504Z,97671.56
2022-12-23T01:21:23.908Z,97676.03
2022-12-23T01:22:24.162Z,97672.27
2022-12-23T01:23:23.903Z,97668.56
2022-12-23T01:24:27.327Z,97670.32
2022-12-23T01:25:23.945Z,97670.05
2022-12-23T01:26:23.994Z,97673.34
2022-12-23T01:27:23.991Z,97673.95
2022-12-23T01:28:23.981Z,97678.15
2022-12-23T01:29:23.999Z,97680.76
2022-12-23T01:30:24.240Z,97685.69
2022-12-23T01:31:24.850Z,97688.45
2022-12-23T01:32:24.035Z,97700.08
2022-12-23T01:33:24.044Z,97699.98
2022-12-23T01:34:24.320Z,97698.03
2022-12-23T01:35:24.084Z,97697.4
2022-12-23T01:36:24.502Z,97695.72
2022-12-23T01:37:24.237Z,97694.95
2022-12-23T01:38:24.110Z,97688.18
2022-12-23T01:39:24.147Z,97692.55
2022-12-23T01:40:24.168Z,97694.19
2022-12-23T01:41:26.581Z,97699.5
2022-12-23T01:42:24.172Z,97697.91
2022-12-23T01:45:34.337Z,97690.17
2022-12-23T01:46:34.461Z,97689.58
2022-12-23T01:47:43.331Z,97687.66
2022-12-23T01:48:35.721Z,97692.84
2022-12-23T01:49:35.008Z,97692.07
2022-12-23T01:50:44.501Z,97695.2
2022-12-23T01:51:36.145Z,97689.32
2022-12-23T01:52:39.930Z,97689.39
2022-12-23T01:53:50.184Z,97689.92
2022-12-23T01:54:37.170Z,97687.95
2022-12-23T01:55:40.231Z,97682.26
2022-12-23T01:56:39.538Z,97681.16
2022-12-23T01:57:39.211Z,97677.8
2022-12-23T01:58:38.310Z,97677.44
2022-12-23T01:59:37.075Z,97677.94
2022-12-23T02:00:37.495Z,97675.58
2022-12-23T02:01:37.720Z,97668.77
2022-12-23T02:02:39.034Z,97670.8
2022-12-23T02:03:37.169Z,97667.34
2022-12-23T02:04:37.293Z,97661.38
2022-12-23T02:05:37.263Z,97663.02
2022-12-23T02:06:38.286Z,97662.69
2022-12-23T02:07:37.146Z,97661.18
2022-12-23T02:08:39.000Z,97663.89
2022-12-23T02:09:38.479Z,97658.53
2022-12-23T02:12:46.084Z,97650.5
2022-12-23T02:15:59.801Z,97649.62
2022-12-23T02:16:58.777Z,97647.17
2022-12-23T02:19:09.825Z,97649.38
2022-12-23T02:26:31.866Z,97640.7
2022-12-23T02:27:31.990Z,97636.5
2022-12-23T02:38:54.057Z,97619.59
2022-12-23T02:39:56.014Z,97616.89
2022-12-23T02:41:58.966Z,97614.55
2022-12-23T02:44:04.725Z,97612.05
2022-12-23T02:47:10.808Z,97614.42
2022-12-23T02:48:11.190Z,97617.97
2022-12-23T02:49:15.115Z,97609.12
2022-12-23T02:51:15.561Z,97610.17
2022-12-23T02:52:17.064Z,97608.41
2022-12-23T02:54:23.032Z,97614.05
2022-12-23T02:55:22.011Z,97619.69
2022-12-23T02:56:20.895Z,97620.69
2022-12-23T02:57:22.095Z,97635.3
2022-12-23T02:58:22.137Z,97636.5
2022-12-23T02:59:25.310Z,97632.95
2022-12-23T03:00:22.251Z,97634.14
2022-12-23T03:01:23.170Z,97638.53
2022-12-23T03:02:21.880Z,97631.06
2022-12-23T03:03:22.634Z,97636.02
2022-12-23T03:04:22.033Z,97636.26
2022-12-23T03:06:26.111Z,97631.27
2022-12-23T03:08:27.655Z,97635.8
2022-12-23T03:13:44.852Z,97635.17
2022-12-23T03:14:48.606Z,97636.12
2022-12-23T03:28:15.775Z,97621.58
2022-12-23T03:29:15.471Z,97624.69
2022-12-23T03:30:14.171Z,97621.58
2022-12-23T03:31:15.226Z,97622.11
2022-12-23T03:32:13.739Z,97621.24
2022-12-23T03:33:15.435Z,97618.59
2022-12-23T03:34:14.848Z,97613.86
2022-12-23T03:35:13.045Z,97612.74
2022-12-23T03:36:16.454Z,97611.34
2022-12-23T03:37:15.003Z,97611.91
2022-12-23T03:38:14.736Z,97607.76
2022-12-23T03:39:16.121Z,97617
2022-12-23T03:41:19.068Z,97612.02
2022-12-23T03:43:22.011Z,97611.71
2022-12-23T03:44:21.160Z,97611.55
2022-12-23T03:45:38.515Z,97612.17
2022-12-23T03:48:29.442Z,97609.77
2022-12-23T03:49:30.685Z,97611.23
2022-12-23T03:50:27.127Z,97612.22
2022-12-23T03:51:30.702Z,97612.06
2022-12-23T03:53:34.994Z,97606.52
2022-12-23T03:54:36.852Z,97611.72
2022-12-23T03:55:35.922Z,97610.81
2022-12-23T03:56:39.826Z,97607.84
2022-12-23T03:57:48.537Z,97608.73
2022-12-23T03:58:47.216Z,97607.97
2022-12-23T03:59:45.515Z,97603.7
2022-12-23T04:00:47.724Z,97604.2
2022-12-23T04:02:57.586Z,97601.56
2022-12-23T04:04:00.921Z,97605.48
2022-12-23T04:05:58.817Z,97602.45
2022-12-23T04:07:00.156Z,97604.55
2022-12-23T04:08:58.618Z,97602.4
2022-12-23T04:09:58.837Z,97599.75
2022-12-23T04:10:59.187Z,97598.56
2022-12-23T04:11:58.805Z,97596.96
2022-12-23T04:12:58.659Z,97592.14
2022-12-23T04:13:58.568Z,97594.23
2022-12-23T04:14:58.532Z,97594
2022-12-23T04:15:59.584Z,97593.31
2022-12-23T04:16:58.594Z,97592.33
2022-12-23T04:17:58.886Z,97593.19
2022-12-23T04:18:58.592Z,97589.19
2022-12-23T04:19:58.612Z,97593.56
2022-12-23T04:20:58.610Z,97590.52
2022-12-23T04:21:58.617Z,97589.29
2022-12-23T04:22:58.596Z,97589.09
2022-12-23T04:23:58.607Z,97583.53
2022-12-23T04:24:58.623Z,97582.56
2022-12-23T04:25:58.699Z,97578.65
2022-12-23T04:26:58.645Z,97578.38
2022-12-23T04:27:58.687Z,97579.3
2022-12-23T04:28:58.630Z,97579.67
2022-12-23T04:29:58.680Z,97581.69
2022-12-23T04:30:58.695Z,97584.15
2022-12-23T04:31:58.967Z,97580.92
2022-12-23T04:32:58.773Z,97578.49
2022-12-23T04:33:58.717Z,97586.11
2022-12-23T04:34:58.762Z,97588.46
2022-12-23T04:35:59.633Z,97589.41
2022-12-23T04:36:58.807Z,97592.23
2022-12-23T04:37:58.904Z,97594.23
2022-12-23T04:38:58.795Z,97595.14
2022-12-23T04:39:58.806Z,97589.58
2022-12-23T04:40:58.820Z,97587.56
2022-12-23T04:41:58.824Z,97590.33
2022-12-23T04:42:58.917Z,97588.3
2022-12-23T04:43:58.916Z,97579.59
2022-12-23T04:44:58.965Z,97578.97
2022-12-23T04:45:58.929Z,97579.39
2022-12-23T04:46:58.942Z,97574.12
2022-12-23T04:47:58.981Z,97576.39
2022-12-23T04:48:58.955Z,97575.7
2022-12-23T04:49:58.975Z,97578.84
2022-12-23T04:51:01.593Z,97581.23
2022-12-23T04:51:59.347Z,97579.73
2022-12-23T04:52:59.037Z,97581.3
2022-12-23T04:53:58.990Z,97577.16
2022-12-23T04:54:59.043Z,97574.88
2022-12-23T04:55:59.014Z,97573.75
2022-12-23T04:56:59.039Z,97576.86
2022-12-23T04:57:59.075Z,97572.41
2022-12-23T04:58:59.111Z,97577.87
2022-12-23T04:59:59.046Z,97572.33
2022-12-23T05:01:06.064Z,97567.31
2022-12-23T05:02:02.610Z,97571.55
2022-12-23T05:03:02.813Z,97572.05
2022-12-23T05:04:02.362Z,97570.59
2022-12-23T05:05:02.435Z,97574.98
2022-12-23T05:06:02.453Z,97573.22
2022-12-23T05:07:02.389Z,97577.04
2022-12-23T05:08:03.756Z,97573.83
2022-12-23T05:09:03.348Z,97573.7
2022-12-23T05:10:02.541Z,97582.48
2022-12-23T05:11:02.476Z,97586.31
2022-12-23T05:12:02.448Z,97586.56
2022-12-23T05:13:02.549Z,97581.36
2022-12-23T05:14:02.522Z,97584.48
2022-12-23T05:15:02.531Z,97580.64
2022-12-23T05:16:02.608Z,97577.33
2022-12-23T05:17:07.365Z,97581.72
2022-12-23T05:18:04.560Z,97579.36
2022-12-23T05:19:04.333Z,97584.34
2022-12-23T05:20:04.665Z,97583.34
2022-12-23T05:21:04.773Z,97583.56
2022-12-23T05:22:04.344Z,97577.69
2022-12-23T05:23:04.393Z,97580.16
2022-12-23T05:24:04.654Z,97584.42
2022-12-23T05:25:04.703Z,97585.34
2022-12-23T05:26:04.670Z,97589.18
2022-12-23T05:27:04.370Z,97586.51
2022-12-23T05:28:05.031Z,97584.84
2022-12-23T05:29:04.451Z,97584.87
2022-12-23T05:30:04.883Z,97585.2
2022-12-23T05:31:06.032Z,97584.04
2022-12-23T05:32:04.715Z,97588.19
2022-12-23T05:33:04.480Z,97590.38
2022-12-23T05:34:06.800Z,97586.77
2022-12-23T05:35:05.106Z,97590.95
2022-12-23T05:36:04.960Z,97593.34
2022-12-23T05:37:04.494Z,97592.77
2022-12-23T05:38:04.505Z,97592.23
2022-12-23T05:39:04.518Z,97590.01
2022-12-23T05:40:04.998Z,97588.37
2022-12-23T05:41:05.181Z,97589.44
2022-12-23T05:42:04.872Z,97592.59
2022-12-23T05:43:04.579Z,97593.91
2022-12-23T05:44:04.837Z,97587.09
2022-12-23T05:45:05.297Z,97591.86
2022-12-23T05:46:04.888Z,97587.72
2022-12-23T05:47:04.731Z,97586.44
2022-12-23T05:48:04.735Z,97588.73
2022-12-23T05:49:04.675Z,97589.79
2022-12-23T05:50:04.994Z,97585.62
2022-12-23T05:51:04.869Z,97591.8
2022-12-23T05:52:04.960Z,97591.41
2022-12-23T05:53:05.193Z,97592.33
2022-12-23T05:54:04.795Z,97596.83
2022-12-23T05:55:05.268Z,97594.75
2022-12-23T05:56:05.510Z,97588.33
2022-12-23T05:57:04.809Z,97594.08
2022-12-23T05:58:04.793Z,97593.33
2022-12-23T05:59:04.791Z,97595.46
2022-12-23T06:00:05.232Z,97597.22
2022-12-23T06:01:04.962Z,97599.14
2022-12-23T06:02:05.164Z,97604.8
2022-12-23T06:03:05.234Z,97607.7
2022-12-23T06:04:04.944Z,97612.2
2022-12-23T06:05:05.353Z,97608.94
2022-12-23T06:06:05.368Z,97614.33
2022-12-23T06:07:05.205Z,97613.05
2022-12-23T06:08:05.548Z,97609.74
2022-12-23T06:09:05.252Z,97609.61
2022-12-23T06:10:06.305Z,97612.52
2022-12-23T06:11:05.568Z,97614.88
2022-12-23T06:12:05.709Z,97615.31
2022-12-23T06:13:05.279Z,97618.95
2022-12-23T06:14:05.300Z,97618.14
2022-12-23T06:15:06.185Z,97617.2
2022-12-23T06:16:05.824Z,97621.48
2022-12-23T06:17:05.418Z,97621.42
2022-12-23T06:18:05.386Z,97622
2022-12-23T06:19:05.366Z,97619.92
2022-12-23T06:20:06.061Z,97616.89
2022-12-23T06:21:05.571Z,97620.66
2022-12-23T06:22:05.417Z,97626.09
2022-12-23T06:23:05.433Z,97624.66
2022-12-23T06:24:05.926Z,97626.31
2022-12-23T06:25:05.807Z,97626.78
2022-12-23T06:26:05.502Z,97627.42
2022-12-23T06:27:05.508Z,97633
2022-12-23T06:28:05.736Z,97637.75
2022-12-23T06:29:05.553Z,97632.76
2022-12-23T06:30:05.964Z,97640.15
2022-12-23T06:31:05.548Z,97640.64
2022-12-23T06:32:05.826Z,97645.45
2022-12-23T06:33:05.537Z,97645.75
2022-12-23T06:34:05.592Z,97646.94
2022-12-23T06:35:06.542Z,97649.12
2022-12-23T06:36:06.189Z,97649.87
2022-12-23T06:37:05.591Z,97648.73
2022-12-23T06:38:11.679Z,97644.42
2022-12-23T06:39:09.668Z,97645.62
2022-12-23T06:40:09.107Z,97648.08
2022-12-23T06:41:08.373Z,97650.33
2022-12-23T06:42:08.372Z,97649.63
2022-12-23T06:43:08.390Z,97649.07
2022-12-23T06:44:08.386Z,97650.41
2022-12-23T06:45:09.117Z,97650.39
2022-12-23T06:46:08.512Z,97650.6
2022-12-23T06:47:08.452Z,97649.89
2022-12-23T06:48:08.465Z,97647.41
2022-12-23T06:49:13.043Z,97647.95
2022-12-23T06:50:10.455Z,97653.14
2022-12-23T06:51:10.043Z,97657.14
2022-12-23T06:52:10.093Z,97651.81
2022-12-23T06:53:10.260Z,97655.79
2022-12-23T06:54:10.746Z,97656.04
2022-12-23T06:55:10.135Z,97652.84
2022-12-23T06:56:10.209Z,97653.11
2022-12-23T06:57:10.180Z,97653.14
2022-12-23T06:58:10.379Z,97651.62
2022-12-23T06:59:10.220Z,97649.48
2022-12-23T07:00:10.688Z,97649.59
2022-12-23T07:01:10.499Z,97651.51
2022-12-23T07:02:11.033Z,97651.81
2022-12-23T07:03:10.475Z,97650.61
2022-12-23T07:04:10.220Z,97650.3
2022-12-23T07:05:10.260Z,97652.15
2022-12-23T07:06:10.354Z,97655.85
2022-12-23T07:07:10.318Z,97653.77
2022-12-23T07:08:10.279Z,97654.96
2022-12-23T07:09:10.338Z,97654.34
2022-12-23T07:10:10.345Z,97654.98
2022-12-23T07:11:10.371Z,97657.28
2022-12-23T07:12:10.354Z,97656.66
2022-12-23T07:13:10.512Z,97657.53
2022-12-23T07:14:10.426Z,97658.47
2022-12-23T07:15:10.731Z,97660.02
2022-12-23T07:16:10.535Z,97663.12
2022-12-23T07:17:10.567Z,97661.98
2022-12-23T07:18:10.452Z,97663.66
2022-12-23T07:19:10.478Z,97663.27
2022-12-23T07:20:11.031Z,97663.07
2022-12-23T07:21:20.024Z,97662.48
2022-12-23T07:22:11.456Z,97660.43
2022-12-23T07:23:11.456Z,97660.88
2022-12-23T07:24:11.584Z,97665.14
2022-12-23T07:25:11.641Z,97659.68
2022-12-23T07:26:11.558Z,97662.73
2022-12-23T07:27:11.588Z,97665.83
2022-12-23T07:28:11.556Z,97663.95
2022-12-23T07:29:11.620Z,97664.78
2022-12-23T07:30:11.912Z,97669.33
2022-12-23T07:31:11.705Z,97661.78
2022-12-23T07:32:11.813Z,97662.14
2022-12-23T07:33:11.632Z,97661.08
2022-12-23T07:34:11.685Z,97663.55
2022-12-23T07:35:11.739Z,97669
2022-12-23T07:36:11.742Z,97668.61
2022-12-23T07:37:11.769Z,97667.33
2022-12-23T07:38:11.695Z,97672.57
2022-12-23T07:39:11.838Z,97669.5
2022-12-23T07:40:12.159Z,97668.42
2022-12-23T07:41:11.867Z,97668.48
2022-12-23T07:43:12.929Z,97665.48
2022-12-23T07:44:13.113Z,97668.27
2022-12-23T07:45:12.993Z,97667.59
2022-12-23T07:46:13.049Z,97665.27
2022-12-23T07:47:13.050Z,97663.27
2022-12-23T07:48:13.022Z,97659.83
2022-12-23T07:49:13.187Z,97661.12
2022-12-23T07:50:13.191Z,97659.34
2022-12-23T07:51:13.072Z,97659.45
2022-12-23T07:52:13.082Z,97657.51
2022-12-23T07:53:13.076Z,97664.12
2022-12-23T07:54:13.121Z,97658.97
2022-12-23T07:55:13.091Z,97663.11
2022-12-23T07:56:13.166Z,97665.7
2022-12-23T07:57:13.219Z,97660.25
2022-12-23T07:58:13.212Z,97661.97
2022-12-23T07:59:13.290Z,97668.64
2022-12-23T08:00:14.275Z,97671.84
2022-12-23T08:01:13.321Z,97674.13
2022-12-23T08:02:13.464Z,97670.4
2022-12-23T08:03:13.563Z,97668.38
2022-12-23T08:04:13.296Z,97673.58
2022-12-23T08:05:14.043Z,97673.59
2022-12-23T08:06:14.206Z,97669.27
2022-12-23T08:07:13.344Z,97667.77
2022-12-23T08:08:13.300Z,97670.29
2022-12-23T08:09:13.321Z,97670.32
2022-12-23T08:10:13.372Z,97664.86
2022-12-23T08:11:14.388Z,97667.09
2022-12-23T08:12:13.441Z,97672.63
2022-12-23T08:13:13.404Z,97673.97
2022-12-23T08:14:13.427Z,97671.8
2022-12-23T08:15:13.426Z,97669.56
2022-12-23T08:16:13.617Z,97677.08
2022-12-23T08:17:13.677Z,97678
2022-12-23T08:18:13.455Z,97683.36
2022-12-23T08:19:13.476Z,97680.92
2022-12-23T08:20:13.549Z,97673.88
2022-12-23T08:21:14.910Z,97678.52
2022-12-23T08:22:13.560Z,97675.85
2022-12-23T08:23:13.548Z,97681
2022-12-23T08:24:13.819Z,97679.46
2022-12-23T08:25:13.611Z,97683.36
2022-12-23T08:26:17.738Z,97680.52
2022-12-23T08:27:14.082Z,97679.66
2022-12-23T08:28:14.174Z,97682.3
2022-12-23T08:29:14.052Z,97681.2
2022-12-23T08:30:14.268Z,97683.51
2022-12-23T08:31:18.758Z,97689.69
2022-12-23T08:32:15.127Z,97693.95
2022-12-23T08:33:15.283Z,97692.53
2022-12-23T08:34:15.203Z,97689.95
2022-12-23T08:35:15.331Z,97691.41
2022-12-23T08:36:22.349Z,97692.7
2022-12-23T08:37:19.449Z,97694.3
2022-12-23T08:38:19.518Z,97693.42
2022-12-23T08:39:19.551Z,97698.51
2022-12-23T08:40:19.473Z,97701.67
2022-12-23T08:41:21.207Z,97699.67
2022-12-23T08:42:19.559Z,97695.34
2022-12-23T08:43:19.510Z,97702.79
2022-12-23T08:44:19.579Z,97705.14
2022-12-23T08:45:19.527Z,97700.08
2022-12-23T08:46:20.035Z,97701.28
2022-12-23T08:47:19.585Z,97699.55
2022-12-23T08:48:19.595Z,97696.6
2022-12-23T08:49:19.659Z,97699.3
2022-12-23T08:50:19.683Z,97699.58
2022-12-23T08:51:20.937Z,97696.41
2022-12-23T08:52:19.651Z,97696.3
2022-12-23T08:53:19.695Z,97699.98
2022-12-23T08:54:20.194Z,97695.13
2022-12-23T08:55:19.846Z,97691.47
2022-12-23T08:56:21.119Z,97689.97
2022-12-23T08:57:19.708Z,97692.55
2022-12-23T08:58:19.743Z,97694.52
2022-12-23T08:59:20.197Z,97689.06
2022-12-23T09:00:19.994Z,97685.05
2022-12-23T09:01:21.550Z,97689.41
2022-12-23T09:02:20.065Z,97685.7
2022-12-23T09:03:20.114Z,97689.09
2022-12-23T09:04:19.860Z,97688.6
2022-12-23T09:05:19.888Z,97694
2022-12-23T09:07:21.484Z,97686.58
2022-12-23T09:08:21.459Z,97692.53
2022-12-23T09:09:21.483Z,97690.99
2022-12-23T09:10:21.767Z,97695.89
2022-12-23T09:11:23.326Z,97696.2
2022-12-23T09:12:21.493Z,97692.12
2022-12-23T09:13:30.799Z,97689.06
2022-12-23T09:14:26.033Z,97692.22
2022-12-23T09:15:26.046Z,97689.13
2022-12-23T09:16:26.140Z,97687.19
2022-12-23T09:17:26.044Z,97690.2
2022-12-23T09:18:26.096Z,97692.34
2022-12-23T09:19:26.157Z,97690.38
2022-12-23T09:20:26.063Z,97691
2022-12-23T09:21:26.136Z,97690.59
2022-12-23T09:22:26.151Z,97686.91
2022-12-23T09:23:26.307Z,97687.85
2022-12-23T09:24:26.196Z,97684.81
2022-12-23T09:25:26.309Z,97688.02
2022-12-23T09:26:28.061Z,97680.14
2022-12-23T09:27:26.190Z,97683.81
2022-12-23T09:28:26.627Z,97687.67
2022-12-23T09:29:26.252Z,97679.51
2022-12-23T09:30:26.260Z,97683.26
2022-12-23T09:31:30.687Z,97685.64
2022-12-23T09:32:31.561Z,97684.7
2022-12-23T09:33:30.506Z,97681.73
2022-12-23T09:34:30.611Z,97680.02
2022-12-23T09:35:30.544Z,97676.77
2022-12-23T09:36:30.691Z,97679.5
2022-12-23T09:37:30.552Z,97678.58
2022-12-23T09:38:32.373Z,97678.72
2022-12-23T09:39:32.134Z,97678.39
2022-12-23T09:40:33.567Z,97673.8
2022-12-23T09:46:53.518Z,97677.2
2022-12-23T09:47:45.565Z,97676.55
2022-12-23T09:48:49.697Z,97681.77
2022-12-23T09:49:58.194Z,97676.42
2022-12-23T09:50:50.043Z,97674.73
2022-12-23T09:51:51.372Z,97668.11
2022-12-23T09:53:02.047Z,97673.94
2022-12-23T09:54:01.475Z,97670.83
2022-12-23T09:54:58.181Z,97671.05
2022-12-23T09:56:06.496Z,97673.92
2022-12-23T09:58:14.953Z,97673.91
2022-12-23T10:00:16.762Z,97673.22
2022-12-23T10:06:29.240Z,97671.44
2022-12-23T10:07:31.626Z,97676.91
2022-12-23T10:09:38.667Z,97673.27
2022-12-23T10:10:37.352Z,97673.98
2022-12-23T10:11:37.604Z,97675.77
2022-12-23T10:12:40.621Z,97674.94
2022-12-23T10:13:42.129Z,97674.69
2022-12-23T10:14:40.534Z,97677.84
2022-12-23T10:15:46.326Z,97676.22
2022-12-23T10:16:44.350Z,97678.12
2022-12-23T10:17:42.664Z,97677.88
2022-12-23T10:19:47.672Z,97676.87
2022-12-23T10:21:50.193Z,97678.55
2022-12-23T10:22:48.604Z,97674.86
2022-12-23T10:23:51.008Z,97677.25
2022-12-23T10:24:49.464Z,97677
2022-12-23T10:25:49.697Z,97670.86
2022-12-23T10:26:52.805Z,97672.5
2022-12-23T10:27:49.039Z,97666.42
2022-12-23T10:28:50.573Z,97671.32
2022-12-23T10:29:49.250Z,97670.23
2022-12-23T10:31:30.594Z,97669.11
2022-12-23T10:34:01.824Z,97669.34
2022-12-23T10:35:07.246Z,97665.44
2022-12-23T10:36:05.348Z,97670.76
2022-12-23T10:47:44.961Z,97661.08
2022-12-23T10:51:53.076Z,97659.78
2022-12-23T10:52:52.271Z,97660.89
2022-12-23T10:53:53.084Z,97664.42
2022-12-23T10:54:50.421Z,97662.94
2022-12-23T10:55:50.635Z,97664.91
2022-12-23T10:56:50.433Z,97666.01
2022-12-23T10:57:51.791Z,97668.27
2022-12-23T10:58:52.949Z,97667.53
2022-12-23T10:59:50.487Z,97668.02
2022-12-23T11:00:59.001Z,97668.7
2022-12-23T11:05:11.386Z,97671.01
2022-12-23T11:06:08.461Z,97676.66
2022-12-23T11:07:43.011Z,97679.59
2022-12-23T11:08:10.626Z,97679.28
2022-12-23T11:09:14.018Z,97677.4
2022-12-23T11:11:11.737Z,97684.74
2022-12-23T11:12:12.433Z,97683.3
2022-12-23T11:16:28.247Z,97676.92
2022-12-23T11:17:26.645Z,97675.66
2022-12-23T11:18:25.047Z,97676.14
2022-12-23T11:19:25.117Z,97674.53
2022-12-23T11:20:25.127Z,97672.04
2022-12-23T11:21:25.433Z,97674.16
2022-12-23T11:22:25.313Z,97672.34
2022-12-23T11:23:28.809Z,97671.8
2022-12-23T11:24:26.789Z,97674.64
2022-12-23T11:25:36.111Z,97673.92
2022-12-23T11:26:28.635Z,97674.99
2022-12-23T11:27:28.741Z,97677.43
2022-12-23T11:28:29.398Z,97680.77
2022-12-23T11:29:35.674Z,97677.56
2022-12-23T11:30:35.179Z,97675.89
2022-12-23T11:31:33.797Z,97676.47
2022-12-23T11:32:32.578Z,97681.96
2022-12-23T11:33:34.105Z,97681.5
2022-12-23T11:34:36.090Z,97686.01
2022-12-23T11:35:35.745Z,97682.46
2022-12-23T11:36:34.043Z,97685.98
2022-12-23T11:37:42.827Z,97690.33
2022-12-23T11:38:35.700Z,97684.86
2022-12-23T11:39:36.316Z,97686.2
2022-12-23T11:40:37.141Z,97683.88
2022-12-23T11:41:39.244Z,97684.29
2022-12-23T11:42:35.988Z,97682.27
2022-12-23T11:43:39.226Z,97683.48
2022-12-23T11:44:47.553Z,97683.68
2022-12-23T11:45:39.899Z,97681.69
2022-12-23T11:46:39.791Z,97678.45
2022-12-23T11:47:40.687Z,97675.37
2022-12-23T11:48:39.742Z,97681.27
2022-12-23T11:49:47.018Z,97677.58
2022-12-23T11:50:40.386Z,97678.78
2022-12-23T11:51:40.103Z,97683.34
2022-12-23T11:52:49.628Z,97679.29
2022-12-23T11:53:43.166Z,97678.47
2022-12-23T11:54:41.453Z,97682.3
2022-12-23T11:55:46.449Z,97682.45
2022-12-23T11:56:43.904Z,97690.23
2022-12-23T11:57:47.274Z,97690.09
2022-12-23T11:58:50.569Z,97685.76
2022-12-23T11:59:48.426Z,97690.52
2022-12-23T12:00:55.892Z,97687.48
2022-12-23T12:01:49.109Z,97683.8
2022-12-23T12:02:56.580Z,97687.73
2022-12-23T12:03:53.169Z,97685.75
2022-12-23T12:04:57.360Z,97684.22
2022-12-23T12:06:02.115Z,97681.23
2022-12-23T12:06:58.992Z,97682.94
2022-12-23T12:08:01.028Z,97681.16
2022-12-23T12:08:59.649Z,97675.13
2022-12-23T12:09:59.893Z,97677.83
2022-12-23T12:11:04.556Z,97683.59
2022-12-23T12:12:06.015Z,97680.55
2022-12-23T12:13:05.244Z,97684
2022-12-23T12:14:03.652Z,97684.06
2022-12-23T12:15:03.371Z,97682.41
2022-12-23T12:18:07.867Z,97684.98
2022-12-23T12:19:08.935Z,97679.26
2022-12-23T12:21:22.454Z,97678.72
2022-12-23T12:23:25.356Z,97683.9
2022-12-23T12:24:21.858Z,97681.23
2022-12-23T12:25:21.083Z,97681.17
2022-12-23T12:27:21.774Z,97684.42
2022-12-23T12:30:21.930Z,97682.58
2022-12-23T12:35:41.624Z,97674.38
2022-12-23T12:36:42.149Z,97678.84
2022-12-23T12:38:43.102Z,97680.45
2022-12-23T12:39:47.353Z,97684.55
2022-12-23T12:42:54.967Z,97682.46
2022-12-23T12:43:56.264Z,97684.45
2022-12-23T12:44:58.841Z,97685.08
2022-12-23T12:47:27.950Z,97678.77
2022-12-23T12:49:11.815Z,97686.07
2022-12-23T12:50:13.445Z,97678.85
2022-12-23T12:51:21.256Z,97676.55
2022-12-23T12:52:15.305Z,97680.03
2022-12-23T12:53:18.570Z,97682.61
2022-12-23T12:55:22.161Z,97685.56
2022-12-23T12:56:22.723Z,97681.45
2022-12-23T12:57:20.027Z,97683.38
2022-12-23T12:58:20.197Z,97673.22
2022-12-23T12:59:26.933Z,97680.95
2022-12-23T13:00:23.857Z,97676.37
2022-12-23T13:08:56.062Z,97682.33
2022-12-23T13:10:48.920Z,97676.57
2022-12-23T13:15:54.305Z,97675.58
2022-12-23T13:21:06.265Z,97676.83
2022-12-23T13:22:16.139Z,97674.61
2022-12-23T13:23:42.875Z,97674.7
2022-12-23T13:24:20.558Z,97676.09
2022-12-23T13:25:18.288Z,97681.66
2022-12-23T13:26:26.180Z,97679.56
2022-12-23T13:27:19.880Z,97678.63
2022-12-23T13:30:22.654Z,97679.59
2022-12-23T13:39:57.805Z,97682.54
2022-12-23T13:42:01.398Z,97682.75
2022-12-23T13:42:59.657Z,97680.61
2022-12-23T13:43:58.167Z,97682.86
2022-12-23T13:44:57.932Z,97681.87
2022-12-23T13:45:59.945Z,97681.89
2022-12-23T13:52:11.730Z,97676.97
2022-12-23T13:54:22.661Z,97679.79
2022-12-23T13:58:24.490Z,97675.81
2022-12-23T13:59:21.583Z,97672.84
2022-12-23T14:00:26.001Z,97675.01
2022-12-23T14:03:32.484Z,97675.21
2022-12-23T14:04:31.466Z,97676.41
2022-12-23T14:05:36.700Z,97680.33
2022-12-23T14:06:43.842Z,97679.11
2022-12-23T14:07:35.677Z,97675.3
2022-12-23T14:08:44.195Z,97672.76
2022-12-23T14:09:36.934Z,97671.16
2022-12-23T14:10:35.998Z,97671.73
2022-12-23T14:11:36.418Z,97673.23
2022-12-23T14:12:37.995Z,97674.91
2022-12-23T14:14:43.806Z,97673.86
2022-12-23T14:16:55.264Z,97668.2
2022-12-23T14:19:58.984Z,97674.59
2022-12-23T14:23:02.169Z,97677.02
2022-12-23T14:24:06.228Z,97678.39
2022-12-23T14:31:31.562Z,97677.67
2022-12-23T14:32:30.179Z,97680.6
2022-12-23T14:33:29.519Z,97675.16
2022-12-23T14:34:30.234Z,97677.73
2022-12-23T14:36:32.193Z,97674.86
2022-12-23T14:37:35.069Z,97671.2
2022-12-23T14:38:33.970Z,97678.57
2022-12-23T14:39:33.053Z,97673.65
2022-12-23T14:44:44.818Z,97675.14
2022-12-23T14:45:44.242Z,97677.66